Time;durP1;ratioP1;P1;durP2;ratioP2;P2;SDS_P1;SDS_P2;PMS_P1;PMS_P2;Temp;Humidity;BMP_temperature;BMP_pressure;BME280_temperature;BME280_humidity;BME280_pressure;Samples;Min_cycle;Max_cycle;Signal;HPM_P1;HPM_P2
2024/04/06 07:05:02;;;;;;;3.53;1.80;;;;;;;;;;10628301;27;19907;-83
2024/04/06 07:10:04;;;;;;;4.45;1.60;;;;;;;;;;10616925;27;20052;-83
2024/04/06 07:15:13;;;;;;;3.58;1.40;;;;;;;;;;10635418;27;20039;-80
2024/04/06 07:20:14;;;;;;;4.35;1.83;;;;;;;;;;10634722;27;20027;-80
2024/04/06 07:25:15;;;;;;;4.05;1.55;;;;;;;;;;10621687;27;20033;-80
2024/04/06 07:30:18;;;;;;;3.75;1.65;;;;;;;;;;10624261;27;20539;-81
2024/04/06 07:35:19;;;;;;;3.30;1.45;;;;;;;;;;10621977;27;20107;-80
2024/04/06 07:40:21;;;;;;;2.65;1.63;;;;;;;;;;10641246;27;20024;-83
2024/04/06 07:45:22;;;;;;;4.68;1.80;;;;;;;;;;10623577;27;20078;-83
2024/04/06 07:50:24;;;;;;;4.00;1.80;;;;;;;;;;10641963;27;20069;-83
2024/04/06 07:55:26;;;;;;;3.53;1.35;;;;;;;;;;10642802;27;20022;-81
2024/04/06 08:00:28;;;;;;;2.67;1.60;;;;;;;;;;10620237;27;20405;-81
2024/04/06 08:05:29;;;;;;;5.13;1.55;;;;;;;;;;10616246;27;20080;-80
2024/04/06 09:02:05;;;;;;;2.97;1.63;;;;;;;;;;10635980;27;20430;-82
2024/04/06 09:07:21;;;;;;;3.10;1.60;;;;;;;;;;10626577;27;20475;-81
2024/04/06 09:12:28;;;;;;;4.88;1.63;;;;;;;;;;10626409;27;20388;-81
2024/04/06 09:17:42;;;;;;;2.25;1.42;;;;;;;;;;10627681;27;20019;-81
2024/04/06 09:22:43;;;;;;;2.50;1.35;;;;;;;;;;10612747;27;20023;-82
2024/04/06 09:27:45;;;;;;;4.70;2.15;;;;;;;;;;10612124;27;20023;-80
2024/04/06 09:32:46;;;;;;;4.20;1.45;;;;;;;;;;10629402;27;20015;-80
2024/04/06 09:37:48;;;;;;;3.58;1.30;;;;;;;;;;10636157;27;20050;-83
2024/04/06 09:42:49;;;;;;;3.80;1.95;;;;;;;;;;10614160;27;20392;-82
2024/04/06 09:47:51;;;;;;;5.10;1.70;;;;;;;;;;10617869;28;20020;-83
2024/04/06 09:52:52;;;;;;;2.10;1.30;;;;;;;;;;10620136;28;20034;-85
2024/04/06 09:57:53;;;;;;;2.60;1.00;;;;;;;;;;10636082;28;20131;-85
2024/04/06 10:02:54;;;;;;;4.90;1.38;;;;;;;;;;10616285;28;20030;-86
2024/04/06 10:07:55;;;;;;;2.15;1.30;;;;;;;;;;10638801;28;20031;-85
2024/04/06 10:12:57;;;;;;;2.55;1.30;;;;;;;;;;10633741;28;20019;-85
2024/04/06 10:17:58;;;;;;;4.90;1.38;;;;;;;;;;10641918;28;20156;-86
2024/04/06 10:23:00;;;;;;;3.08;1.45;;;;;;;;;;10634498;28;20468;-85
2024/04/06 10:28:05;;;;;;;2.53;1.20;;;;;;;;;;10634370;28;20114;-83
2024/04/06 10:33:07;;;;;;;4.97;1.60;;;;;;;;;;10614186;27;20031;-83
2024/04/06 10:38:08;;;;;;;3.50;1.65;;;;;;;;;;10624377;27;20373;-83
2024/04/06 10:43:09;;;;;;;2.80;1.48;;;;;;;;;;10637378;27;20373;-83
2024/04/06 10:48:11;;;;;;;4.57;1.67;;;;;;;;;;10631258;27;20030;-82
2024/04/06 10:53:12;;;;;;;3.17;1.55;;;;;;;;;;10644684;27;20060;-83
2024/04/06 10:58:13;;;;;;;2.97;1.30;;;;;;;;;;10630361;27;20026;-84
2024/04/06 11:03:14;;;;;;;2.60;1.23;;;;;;;;;;10658841;27;20027;-81
2024/04/06 11:08:15;;;;;;;2.47;1.42;;;;;;;;;;10637052;27;20023;-86
2024/04/06 11:13:17;;;;;;;3.05;1.23;;;;;;;;;;10633764;27;20011;-82
2024/04/06 11:18:18;;;;;;;2.47;1.38;;;;;;;;;;10636348;27;20034;-85
2024/04/06 11:23:23;;;;;;;2.97;1.30;;;;;;;;;;10636909;27;20031;-85
2024/04/06 11:28:24;;;;;;;3.72;1.13;;;;;;;;;;10649898;27;20072;-84
2024/04/06 11:33:26;;;;;;;2.53;1.40;;;;;;;;;;10646557;27;20047;-84
2024/04/06 11:38:28;;;;;;;4.43;2.30;;;;;;;;;;10630613;27;20046;-82
2024/04/06 11:43:29;;;;;;;2.53;1.20;;;;;;;;;;10629517;27;20023;-84
2024/04/06 11:48:30;;;;;;;2.85;1.20;;;;;;;;;;10627988;27;20114;-84
2024/04/06 11:53:34;;;;;;;1.95;1.27;;;;;;;;;;10637105;27;20023;-88
2024/04/06 11:58:35;;;;;;;3.42;1.50;;;;;;;;;;10631397;27;20023;-86
2024/04/06 12:03:36;;;;;;;3.10;1.38;;;;;;;;;;10617451;27;20030;-86
2024/04/06 12:08:37;;;;;;;2.53;1.40;;;;;;;;;;10615410;27;20029;-84
2024/04/06 12:13:38;;;;;;;2.63;1.20;;;;;;;;;;10619906;27;20027;-84
2024/04/06 12:18:40;;;;;;;2.53;1.25;;;;;;;;;;10621091;27;20094;-84
2024/04/06 12:23:42;;;;;;;2.15;1.40;;;;;;;;;;10622139;27;20158;-84
2024/04/06 12:28:43;;;;;;;3.60;1.10;;;;;;;;;;10619735;27;20123;-84
2024/04/06 12:33:44;;;;;;;2.60;1.40;;;;;;;;;;10592670;27;20043;-84
2024/04/06 12:38:45;;;;;;;2.55;1.00;;;;;;;;;;10618508;27;20122;-84
2024/04/06 12:43:46;;;;;;;3.85;1.17;;;;;;;;;;10619050;27;20053;-84
2024/04/06 12:48:47;;;;;;;2.53;1.17;;;;;;;;;;10617994;27;20484;-85
2024/04/06 12:53:48;;;;;;;3.13;1.30;;;;;;;;;;10616344;27;20114;-86
2024/04/06 12:58:50;;;;;;;2.15;1.00;;;;;;;;;;10612524;27;20054;-86
2024/04/06 13:03:51;;;;;;;2.83;1.45;;;;;;;;;;10614892;27;20050;-84
2024/04/06 13:08:52;;;;;;;1.80;1.00;;;;;;;;;;10614912;27;20102;-82
2024/04/06 13:13:53;;;;;;;2.88;1.00;;;;;;;;;;10636470;27;20051;-86
2024/04/06 13:18:54;;;;;;;4.68;1.10;;;;;;;;;;10628983;27;20023;-86
2024/04/06 13:23:55;;;;;;;3.80;1.23;;;;;;;;;;10610059;27;20027;-86
2024/04/06 13:28:56;;;;;;;2.58;1.00;;;;;;;;;;10635186;27;20031;-84
2024/04/06 13:33:57;;;;;;;4.03;1.10;;;;;;;;;;10621741;27;20425;-83
2024/04/06 13:38:58;;;;;;;2.20;1.20;;;;;;;;;;10615937;27;20033;-84
2024/04/06 13:44:01;;;;;;;2.47;1.05;;;;;;;;;;10616978;27;20061;-84
2024/04/06 13:49:03;;;;;;;1.27;0.80;;;;;;;;;;10626824;28;20023;-84
2024/04/06 13:54:07;;;;;;;2.05;1.00;;;;;;;;;;10622542;28;20624;-84
2024/04/06 13:59:08;;;;;;;2.92;1.05;;;;;;;;;;10477336;23;20049;-81
2024/04/06 14:04:10;;;;;;;2.20;0.98;;;;;;;;;;10420173;28;20033;-81
2024/04/06 14:09:14;;;;;;;2.95;1.00;;;;;;;;;;10419214;28;20040;-80
2024/04/06 14:14:19;;;;;;;2.80;1.00;;;;;;;;;;10434698;28;20109;-81
2024/04/06 14:19:23;;;;;;;1.92;1.10;;;;;;;;;;10436497;28;20025;-80
2024/04/06 14:24:24;;;;;;;2.08;0.90;;;;;;;;;;10439269;28;20021;-82
2024/04/06 14:29:25;;;;;;;1.98;1.10;;;;;;;;;;10429331;28;20555;-81
2024/04/06 14:34:26;;;;;;;2.72;1.00;;;;;;;;;;10428193;28;20025;-81
2024/04/06 14:39:27;;;;;;;3.83;1.05;;;;;;;;;;10427845;28;20029;-81
2024/04/06 14:44:28;;;;;;;5.25;1.42;;;;;;;;;;10444823;28;20021;-80
2024/04/06 14:49:29;;;;;;;2.13;1.20;;;;;;;;;;10427390;28;20025;-81
2024/04/06 14:54:30;;;;;;;3.50;1.30;;;;;;;;;;10425552;28;20116;-81
2024/04/06 14:59:32;;;;;;;3.47;1.50;;;;;;;;;;10425488;28;20475;-81
2024/04/06 15:04:33;;;;;;;3.15;1.30;;;;;;;;;;10427786;28;20085;-81
2024/04/06 15:09:39;;;;;;;6.25;1.70;;;;;;;;;;10426921;28;20075;-80
2024/04/06 15:14:40;;;;;;;3.83;1.58;;;;;;;;;;10433134;28;20052;-81
2024/04/06 15:19:41;;;;;;;4.00;1.20;;;;;;;;;;10433715;28;20089;-81
2024/04/06 15:24:42;;;;;;;4.00;1.50;;;;;;;;;;10430619;28;20048;-80
2024/04/06 15:29:44;;;;;;;1.58;1.08;;;;;;;;;;10433879;28;20105;-80
2024/04/06 15:34:45;;;;;;;3.60;1.35;;;;;;;;;;10435676;28;20021;-80
2024/04/06 15:39:46;;;;;;;7.15;1.40;;;;;;;;;;10434510;28;20069;-81
2024/04/06 15:44:47;;;;;;;2.85;1.23;;;;;;;;;;10434142;28;20018;-80
2024/04/06 15:49:48;;;;;;;2.95;1.42;;;;;;;;;;10433980;28;20482;-81
2024/04/06 15:54:49;;;;;;;3.20;1.40;;;;;;;;;;10426466;28;20110;-81
2024/04/06 15:59:50;;;;;;;2.70;1.50;;;;;;;;;;10422794;28;20462;-82
2024/04/06 16:04:51;;;;;;;2.65;1.50;;;;;;;;;;10423193;28;20018;-82
2024/04/06 16:09:52;;;;;;;6.10;1.80;;;;;;;;;;10424029;28;20021;-81
2024/04/06 16:14:53;;;;;;;3.05;1.50;;;;;;;;;;10423999;28;20025;-81
2024/04/06 16:19:54;;;;;;;2.65;1.70;;;;;;;;;;10426918;28;20049;-81
2024/04/06 16:24:55;;;;;;;3.22;1.70;;;;;;;;;;10428429;28;20045;-80
2024/04/06 16:29:56;;;;;;;2.72;1.60;;;;;;;;;;10426676;28;20029;-80
2024/04/06 16:34:57;;;;;;;3.03;1.80;;;;;;;;;;10424302;28;20081;-80
2024/04/06 16:39:58;;;;;;;2.67;1.58;;;;;;;;;;10421237;28;20103;-81
2024/04/06 16:44:59;;;;;;;4.60;2.53;;;;;;;;;;10419954;28;20049;-80
2024/04/06 16:50:00;;;;;;;3.50;1.75;;;;;;;;;;10431330;28;20033;-81
2024/04/06 16:55:01;;;;;;;2.85;1.50;;;;;;;;;;10427829;28;20376;-79
2024/04/06 17:00:05;;;;;;;3.45;1.70;;;;;;;;;;10427575;28;20036;-80
2024/04/06 17:05:06;;;;;;;3.08;1.80;;;;;;;;;;10426351;28;20397;-80
2024/04/06 17:10:08;;;;;;;3.22;1.65;;;;;;;;;;10421498;28;20426;-82
2024/04/06 17:15:09;;;;;;;7.22;1.70;;;;;;;;;;10419999;28;20034;-81
2024/04/06 17:20:11;;;;;;;4.07;2.25;;;;;;;;;;10419604;28;20487;-82
2024/04/06 17:25:12;;;;;;;4.05;1.75;;;;;;;;;;10418962;28;20041;-82
2024/04/06 17:30:13;;;;;;;2.65;1.75;;;;;;;;;;10419562;28;20032;-83
2024/04/06 17:35:14;;;;;;;4.90;2.08;;;;;;;;;;10422076;28;20018;-83
2024/04/06 17:40:16;;;;;;;4.28;2.70;;;;;;;;;;10418555;28;20026;-81
2024/04/06 17:45:18;;;;;;;3.63;2.03;;;;;;;;;;10420426;28;20032;-81
2024/04/06 17:50:20;;;;;;;3.40;2.42;;;;;;;;;;10420763;28;20506;-81
2024/04/06 17:55:21;;;;;;;3.47;2.38;;;;;;;;;;10420173;28;20039;-81
2024/04/06 18:00:26;;;;;;;4.50;2.67;;;;;;;;;;10420969;28;20060;-83
2024/04/06 18:05:27;;;;;;;5.70;2.90;;;;;;;;;;10423597;28;20044;-81
2024/04/06 18:10:28;;;;;;;7.15;3.05;;;;;;;;;;10450104;28;20114;-82
2024/04/06 18:15:29;;;;;;;5.60;3.70;;;;;;;;;;10420130;28;20018;-82
2024/04/06 18:20:30;;;;;;;7.93;4.22;;;;;;;;;;10419757;28;20044;-81
2024/04/06 18:25:32;;;;;;;6.60;3.97;;;;;;;;;;10420035;28;20017;-81
2024/04/06 18:30:33;;;;;;;7.15;3.50;;;;;;;;;;10418083;28;20030;-82
2024/04/06 18:35:34;;;;;;;5.78;3.58;;;;;;;;;;10420693;28;20088;-81
2024/04/06 18:40:35;;;;;;;5.03;3.67;;;;;;;;;;10418756;28;20111;-82
2024/04/06 18:45:36;;;;;;;6.35;4.05;;;;;;;;;;10418266;28;20026;-81
2024/04/06 18:50:38;;;;;;;5.35;4.03;;;;;;;;;;10420321;28;20033;-81
2024/04/06 18:55:40;;;;;;;6.65;4.90;;;;;;;;;;10421184;28;20041;-82
2024/04/06 19:00:41;;;;;;;5.35;4.28;;;;;;;;;;10426830;28;20053;-82
2024/04/06 19:05:43;;;;;;;7.68;4.70;;;;;;;;;;10428417;28;20033;-82
